Terminal Aerodrome Forecast
Issued by NWS

Home | Current Version | Previous Version | Text Only | Print | Product List | Glossary On
Versions: 1 2 3 4 5 6 7 8 9 10 11 12 13 14 15
779
FTUS43 KGRB 300520
TAFMTW
TAF
KMTW 300520Z 3006/0106 07007KT P6SM SKC
     FM300900 04005KT P6SM SCT035 SCT200
     FM301500 06010G16KT P6SM SCT030 BKN150
     FM302100 07012G20KT P6SM VCSH SCT020 BKN030=

USA.gov is the U.S. government's official web portal to all federal, state and local government web resources and services.